createdAt,value
2023-04-17T00:01:30.875Z,15.25
2023-04-17T00:06:52.706Z,16.70
2023-04-17T00:12:14.761Z,15.93
2023-04-17T00:17:36.707Z,15.80
2023-04-17T00:22:58.545Z,16.20
2023-04-17T00:28:20.539Z,16.27
2023-04-17T00:33:42.370Z,16.40
2023-04-17T00:39:04.159Z,14.77
2023-04-17T00:44:26.576Z,16.00
2023-04-17T00:49:50.664Z,15.50
2023-04-17T00:55:13.532Z,16.88
2023-04-17T01:00:35.557Z,16.20
2023-04-17T01:05:57.444Z,14.75
2023-04-17T01:11:19.283Z,15.77
2023-04-17T01:16:41.223Z,15.45
2023-04-17T01:22:03.052Z,15.73
2023-04-17T01:27:24.909Z,16.45
2023-04-17T01:32:46.868Z,15.30
2023-04-17T01:38:08.793Z,16.15
2023-04-17T01:43:30.625Z,15.18
2023-04-17T01:48:52.546Z,15.90
2023-04-17T01:54:14.361Z,16.33
2023-04-17T01:59:36.236Z,16.60
2023-04-17T02:04:58.058Z,15.43
2023-04-17T02:10:19.882Z,14.20
2023-04-17T02:15:42.140Z,16.67
2023-04-17T02:21:03.961Z,16.05
2023-04-17T02:26:25.756Z,16.17
2023-04-17T02:31:47.715Z,15.88
2023-04-17T02:37:09.609Z,15.13
2023-04-17T02:42:31.478Z,16.10
2023-04-17T02:47:53.373Z,16.05
2023-04-17T02:53:15.205Z,18.27
2023-04-17T02:58:37.026Z,17.23
2023-04-17T03:03:59.097Z,16.52
2023-04-17T03:09:21.211Z,16.23
2023-04-17T03:14:44.109Z,17.10
2023-04-17T03:20:07.775Z,17.52
2023-04-17T03:25:29.591Z,17.65
2023-04-17T03:30:51.696Z,17.38
2023-04-17T03:36:13.494Z,15.13
2023-04-17T03:41:35.313Z,16.52
2023-04-17T03:46:57.117Z,15.85
2023-04-17T03:52:18.949Z,15.73
2023-04-17T03:57:40.780Z,15.90
2023-04-17T04:03:02.982Z,16.98
2023-04-17T04:08:24.895Z,16.73
2023-04-17T04:13:46.708Z,15.65
2023-04-17T04:19:09.314Z,18.38
2023-04-17T04:24:31.306Z,17.52
2023-04-17T04:29:53.760Z,17.08
2023-04-17T04:35:15.626Z,18.13
2023-04-17T04:40:37.460Z,17.30
2023-04-17T04:45:59.424Z,17.13
2023-04-17T04:51:21.282Z,17.00
2023-04-17T04:56:43.155Z,16.65
2023-04-17T05:02:05.060Z,16.67
2023-04-17T05:07:26.946Z,17.92
2023-04-17T05:12:49.296Z,17.10
2023-04-17T05:18:11.113Z,17.58
2023-04-17T05:23:32.954Z,18.27
2023-04-17T05:28:54.768Z,16.30
2023-04-17T05:34:16.652Z,18.08
2023-04-17T05:39:38.531Z,17.60
2023-04-17T05:45:00.328Z,17.30
2023-04-17T05:50:22.164Z,14.50
2023-04-17T05:55:43.966Z,14.77
2023-04-17T06:01:06.279Z,15.57
2023-04-17T06:06:28.125Z,16.77
2023-04-17T06:11:50.052Z,14.90
2023-04-17T06:17:11.982Z,16.50
2023-04-17T06:22:33.992Z,16.95
2023-04-17T06:27:55.906Z,15.80
2023-04-17T06:33:17.729Z,15.70
2023-04-17T06:38:39.515Z,14.98
2023-04-17T06:44:01.321Z,15.20
2023-04-17T06:49:23.165Z,14.45
2023-04-17T06:54:44.982Z,12.10
2023-04-17T07:00:07.542Z,11.93
2023-04-17T07:05:29.346Z,11.30
2023-04-17T07:10:51.169Z,12.68
2023-04-17T07:16:13.020Z,12.18
2023-04-17T07:21:34.870Z,12.38
2023-04-17T07:26:56.708Z,12.95
2023-04-17T07:32:18.529Z,13.30
2023-04-17T07:37:40.352Z,13.52
2023-04-17T07:43:02.159Z,15.57
2023-04-17T07:48:23.997Z,14.75
2023-04-17T07:53:45.815Z,15.25
2023-04-17T07:59:07.618Z,15.18
2023-04-17T08:04:29.574Z,14.45
2023-04-17T08:09:51.548Z,14.10
2023-04-17T08:15:13.378Z,13.50
2023-04-17T08:20:35.896Z,13.43
2023-04-17T08:25:57.755Z,13.40
2023-04-17T08:31:19.612Z,13.27
2023-04-17T08:36:41.541Z,13.43
2023-04-17T08:42:09.970Z,12.65
2023-04-17T08:47:34.163Z,14.07
2023-04-17T08:52:55.973Z,12.75
2023-04-17T08:58:17.782Z,12.15
2023-04-17T09:03:44.289Z,10.73
2023-04-17T09:09:06.297Z,11.10
2023-04-17T09:14:31.293Z,10.90
2023-04-17T09:20:08.036Z,10.77
2023-04-17T09:25:30.198Z,11.00
2023-04-17T09:30:52.002Z,10.57
2023-04-17T09:36:21.970Z,9.27
2023-04-17T09:41:44.067Z,9.55
2023-04-17T09:47:06.756Z,9.48
2023-04-17T09:52:28.655Z,9.30
2023-04-17T09:57:53.272Z,10.55
2023-04-17T10:03:15.534Z,9.38
2023-04-17T10:08:37.635Z,11.13
2023-04-17T10:14:10.298Z,10.00
2023-04-17T10:19:34.117Z,10.52
2023-04-17T10:25:14.021Z,10.30
2023-04-17T10:30:53.074Z,10.73
2023-04-17T10:36:39.993Z,10.70
2023-04-17T10:42:06.435Z,10.57
2023-04-17T10:47:33.144Z,9.45
2023-04-17T10:52:54.963Z,9.25
2023-04-17T10:58:17.084Z,9.38
2023-04-17T11:03:40.790Z,8.73
2023-04-17T11:09:03.633Z,8.15
2023-04-17T11:14:25.834Z,7.35
2023-04-17T11:19:47.889Z,8.07
2023-04-17T11:25:19.377Z,8.05
2023-04-17T11:30:41.248Z,7.22
2023-04-17T11:36:05.400Z,7.00
2023-04-17T11:41:40.251Z,7.72
2023-04-17T11:47:02.253Z,7.68
2023-04-17T11:52:24.116Z,7.82
2023-04-17T11:57:45.935Z,7.30
2023-04-17T12:03:32.004Z,6.38
2023-04-17T12:08:55.277Z,5.85
2023-04-17T12:14:17.174Z,6.82
2023-04-17T12:19:39.079Z,6.45
2023-04-17T12:25:00.952Z,6.35
2023-04-17T12:30:23.869Z,6.90
2023-04-17T12:35:45.793Z,6.05
2023-04-17T12:41:07.623Z,6.65
2023-04-17T12:46:30.603Z,6.80
2023-04-17T12:51:52.467Z,7.25
2023-04-17T12:57:14.304Z,6.00
2023-04-17T13:02:36.390Z,5.43
2023-04-17T13:07:58.720Z,4.60
2023-04-17T13:13:20.570Z,5.30
2023-04-17T13:18:42.426Z,4.85
2023-04-17T13:24:04.561Z,4.30
2023-04-17T13:29:26.484Z,4.25
2023-04-17T13:34:48.671Z,4.53
2023-04-17T13:40:10.603Z,4.20
2023-04-17T13:45:32.418Z,4.25
2023-04-17T13:50:54.282Z,4.28
2023-04-17T13:56:16.526Z,4.47
2023-04-17T14:01:38.622Z,3.90
2023-04-17T14:07:00.596Z,4.30
2023-04-17T14:12:22.407Z,4.55
2023-04-17T14:17:44.367Z,5.00
2023-04-17T14:23:06.238Z,5.40
2023-04-17T14:28:28.091Z,12.27
2023-04-17T14:33:49.946Z,5.28
2023-04-17T14:39:12.100Z,5.07
2023-04-17T14:44:34.040Z,5.45
2023-04-17T14:49:56.041Z,5.63
2023-04-17T14:55:17.879Z,5.53
2023-04-17T15:00:39.804Z,4.68
2023-04-17T15:06:01.650Z,5.10
2023-04-17T15:11:23.548Z,6.15
2023-04-17T15:16:45.389Z,5.32
2023-04-17T15:22:07.302Z,5.72
2023-04-17T15:27:29.287Z,5.93
2023-04-17T15:32:51.262Z,4.85
2023-04-17T15:38:13.133Z,5.82
2023-04-17T15:43:34.928Z,5.38
2023-04-17T15:49:08.465Z,5.32
2023-04-17T15:54:31.638Z,5.22
2023-04-17T15:59:53.428Z,5.35
2023-04-17T16:05:16.606Z,5.18
2023-04-17T16:10:38.400Z,5.65
2023-04-17T16:16:00.267Z,5.68
2023-04-17T16:21:22.105Z,5.60
2023-04-17T16:26:43.926Z,5.97
2023-04-17T16:32:05.756Z,6.18
2023-04-17T16:37:27.574Z,5.70
2023-04-17T16:42:49.390Z,5.82
2023-04-17T16:48:11.326Z,5.25
2023-04-17T16:53:33.309Z,4.10
2023-04-17T16:58:55.094Z,4.47
2023-04-17T17:04:16.915Z,4.30
2023-04-17T17:09:38.755Z,5.28
2023-04-17T17:15:00.574Z,4.57
2023-04-17T17:20:22.394Z,4.07
2023-04-17T17:25:44.224Z,4.30
2023-04-17T17:31:07.635Z,4.60
2023-04-17T17:36:29.444Z,5.10
2023-04-17T17:41:51.242Z,5.25
2023-04-17T17:47:13.025Z,5.03
2023-04-17T17:52:34.912Z,5.00
2023-04-17T17:57:56.725Z,4.95
2023-04-17T18:03:19.243Z,5.03
2023-04-17T18:08:41.285Z,5.18
2023-04-17T18:14:03.103Z,5.47
2023-04-17T18:19:24.907Z,5.72
2023-04-17T18:24:46.893Z,5.43
2023-04-17T18:30:09.538Z,6.10
2023-04-17T18:35:31.340Z,6.43
2023-04-17T18:40:56.192Z,5.65
2023-04-17T18:46:18.033Z,5.80
2023-04-17T18:51:39.960Z,5.72
2023-04-17T18:57:01.787Z,6.55
2023-04-17T19:02:23.707Z,5.85
2023-04-17T19:07:45.553Z,5.70
2023-04-17T19:13:07.354Z,5.75
2023-04-17T19:18:29.242Z,5.60
2023-04-17T19:23:51.047Z,6.55
2023-04-17T19:29:13.082Z,6.00
2023-04-17T19:34:35.057Z,6.13
2023-04-17T19:39:56.974Z,6.95
2023-04-17T19:45:18.838Z,7.22
2023-04-17T19:50:40.702Z,8.80
2023-04-17T19:56:05.744Z,8.02
2023-04-17T20:01:30.106Z,8.68
2023-04-17T20:06:51.944Z,8.50
2023-04-17T20:12:13.764Z,8.93
2023-04-17T20:17:35.642Z,9.23
2023-04-17T20:22:57.505Z,16.23
2023-04-17T20:28:19.523Z,10.98
2023-04-17T20:33:41.361Z,10.45
2023-04-17T20:39:03.256Z,10.18
2023-04-17T20:44:25.069Z,10.52
2023-04-17T20:49:46.923Z,11.13
2023-04-17T20:55:09.093Z,10.95
2023-04-17T21:00:30.908Z,11.05
2023-04-17T21:05:52.788Z,11.85
2023-04-17T21:11:14.680Z,11.25
2023-04-17T21:16:36.603Z,10.48
2023-04-17T21:21:58.641Z,11.52
2023-04-17T21:27:20.474Z,12.00
2023-04-17T21:32:42.508Z,11.70
2023-04-17T21:38:04.746Z,15.73
2023-04-17T21:43:26.604Z,12.20
2023-04-17T21:48:48.437Z,11.00
2023-04-17T21:54:10.329Z,12.18
2023-04-17T21:59:32.199Z,12.45
2023-04-17T22:04:54.181Z,12.70
2023-04-17T22:10:16.057Z,12.02
2023-04-17T22:15:38.030Z,13.07
2023-04-17T22:20:59.902Z,12.90
2023-04-17T22:26:21.799Z,13.50
2023-04-17T22:31:43.654Z,13.18
2023-04-17T22:37:05.537Z,12.82
2023-04-17T22:42:54.849Z,13.93
2023-04-17T22:48:16.753Z,13.98
2023-04-17T22:53:39.157Z,14.43
2023-04-17T22:59:01.014Z,14.35
2023-04-17T23:04:23.615Z,15.77
2023-04-17T23:10:20.163Z,15.63
2023-04-17T23:15:42.048Z,16.33
2023-04-17T23:21:04.049Z,15.63
2023-04-17T23:26:25.914Z,15.25
2023-04-17T23:31:47.921Z,16.77
2023-04-17T23:37:09.890Z,15.75
2023-04-17T23:42:31.797Z,15.15
2023-04-17T23:47:53.794Z,15.93
2023-04-17T23:53:15.685Z,15.30
2023-04-17T23:58:37.545Z,14.27
